Time;durP1;ratioP1;P1;durP2;ratioP2;P2;SDS_P1;SDS_P2;PMS_P1;PMS_P2;Temp;Humidity;BMP_temperature;BMP_pressure;BME280_temperature;BME280_humidity;BME280_pressure;Samples;Min_cycle;Max_cycle;Signal;HPM_P1;HPM_P2
2021/12/16 00:02:09;;;;;;;54.13;30.10;;;8.70;99.90;;;;;;7257868;32;20113;-80
2021/12/16 00:11:05;;;;;;;55.88;30.85;;;8.90;99.90;;;;;;7249148;32;20128;-80
2021/12/16 00:36:19;;;;;;;59.05;31.87;;;8.90;99.90;;;;;;7249787;32;20142;-80
2021/12/16 00:40:21;;;;;;;63.50;33.30;;;8.80;99.90;;;;;;7250703;32;20129;-81
2021/12/16 00:48:58;;;;;;;55.45;31.17;;;8.90;99.90;;;;;;7254314;32;20143;-81
2021/12/16 00:57:14;;;;;;;57.42;31.95;;;8.90;99.90;;;;;;7266216;32;20564;-82
2021/12/16 01:36:16;;;;;;;62.92;33.38;;;8.80;99.90;;;;;;7260046;32;20159;-81
2021/12/16 01:53:23;;;;;;;67.45;36.03;;;9.00;99.90;;;;;;7251459;32;20159;-82
2021/12/16 01:57:38;;;;;;;60.60;32.45;;;9.00;99.90;;;;;;7258703;32;20116;-80
2021/12/16 02:01:40;;;;;;;66.25;35.75;;;8.90;99.90;;;;;;7257466;32;20165;-81
2021/12/16 02:06:11;;;;;;;75.32;37.28;;;8.90;99.90;;;;;;7247891;32;20120;-81
2021/12/16 02:10:04;;;;;;;69.70;35.50;;;8.90;99.90;;;;;;7256451;32;20174;-82
2021/12/16 02:27:38;;;;;;;64.15;34.08;;;8.90;99.90;;;;;;7251184;32;20207;-82
2021/12/16 02:32:03;;;;;;;68.05;36.65;;;9.00;99.90;;;;;;7239654;32;20857;-81
2021/12/16 02:36:24;;;;;;;67.12;35.55;;;9.00;99.90;;;;;;7254052;32;20209;-80
2021/12/16 02:40:27;;;;;;;72.57;36.42;;;9.10;99.90;;;;;;7253435;32;20116;-81
2021/12/16 02:44:36;;;;;;;62.30;34.13;;;9.00;99.90;;;;;;7240833;32;20129;-81
2021/12/16 02:48:41;;;;;;;67.82;35.08;;;8.90;99.90;;;;;;7253244;32;20240;-81
2021/12/16 02:52:43;;;;;;;66.93;35.67;;;8.90;99.90;;;;;;7267001;32;20535;-81
2021/12/16 02:56:45;;;;;;;66.68;35.70;;;8.90;99.90;;;;;;7261615;32;20569;-80
2021/12/16 03:01:02;;;;;;;65.55;33.63;;;8.90;99.90;;;;;;7258553;32;20138;-81
2021/12/16 03:05:04;;;;;;;70.25;35.50;;;8.80;99.90;;;;;;7247672;32;20139;-80
2021/12/16 03:09:10;;;;;;;63.20;35.25;;;8.90;99.90;;;;;;7258665;32;20130;-81
2021/12/16 03:13:25;;;;;;;68.10;36.70;;;8.90;99.90;;;;;;7249696;32;20322;-82
2021/12/16 03:21:46;;;;;;;65.68;34.90;;;9.00;99.90;;;;;;7271383;32;20157;-82
2021/12/16 03:38:38;;;;;;;64.47;35.25;;;8.90;99.90;;;;;;7217418;32;20082;-81
2021/12/16 03:42:50;;;;;;;71.28;36.28;;;8.90;99.90;;;;;;7270582;32;20125;-81
2021/12/16 03:46:52;;;;;;;67.50;35.35;;;8.90;99.90;;;;;;7253695;32;20166;-81
2021/12/16 03:50:54;;;;;;;69.87;35.55;;;8.90;99.90;;;;;;7246148;32;20133;-81
2021/12/16 03:54:57;;;;;;;65.55;34.25;;;8.90;99.90;;;;;;7272795;32;20174;-81
2021/12/16 03:58:59;;;;;;;65.60;34.97;;;8.90;99.90;;;;;;7251267;32;20117;-81
2021/12/16 04:03:02;;;;;;;62.50;32.58;;;8.90;99.90;;;;;;7273931;32;20136;-81
2021/12/16 04:07:05;;;;;;;71.37;35.55;;;8.90;99.90;;;;;;7255795;32;20108;-81
2021/12/16 04:11:22;;;;;;;66.72;36.03;;;8.90;99.90;;;;;;7255625;32;20113;-81
2021/12/16 04:15:24;;;;;;;63.55;35.03;;;8.90;99.90;;;;;;7250206;32;20186;-81
2021/12/16 04:19:28;;;;;;;64.28;34.72;;;8.90;99.90;;;;;;7257339;32;20176;-81
2021/12/16 04:23:30;;;;;;;71.50;36.90;;;8.90;99.90;;;;;;7233080;32;20109;-81
2021/12/16 04:27:34;;;;;;;72.50;36.10;;;8.90;99.90;;;;;;7260598;32;20142;-81
2021/12/16 04:31:37;;;;;;;70.40;35.60;;;8.90;99.90;;;;;;7247804;32;20668;-82
2021/12/16 04:35:40;;;;;;;69.45;36.15;;;8.80;99.90;;;;;;7236382;32;20198;-82
2021/12/16 04:39:43;;;;;;;67.00;36.22;;;8.90;99.90;;;;;;7244006;32;20132;-81
2021/12/16 04:43:49;;;;;;;69.15;36.70;;;8.90;99.90;;;;;;7246260;32;20604;-81
2021/12/16 04:47:51;;;;;;;76.07;36.85;;;8.80;99.90;;;;;;7259570;32;20100;-81
2021/12/16 04:51:56;;;;;;;67.75;35.33;;;8.80;99.90;;;;;;7260396;32;20184;-81
2021/12/16 04:55:59;;;;;;;73.20;38.03;;;8.80;99.90;;;;;;7267026;32;20588;-82
2021/12/16 05:00:01;;;;;;;71.72;36.90;;;8.90;99.90;;;;;;7241347;32;20121;-81
2021/12/16 05:04:03;;;;;;;74.20;37.58;;;8.90;99.90;;;;;;7266451;32;20801;-81
2021/12/16 05:08:05;;;;;;;69.80;36.50;;;8.90;99.90;;;;;;7268192;32;20524;-81
2021/12/16 05:12:12;;;;;;;78.00;39.88;;;8.80;99.90;;;;;;7256751;32;20112;-81
2021/12/16 05:16:14;;;;;;;74.20;36.78;;;8.80;99.90;;;;;;7246760;32;20188;-81
2021/12/16 05:20:23;;;;;;;74.97;37.80;;;8.80;99.90;;;;;;7264665;32;20933;-81
2021/12/16 05:24:27;;;;;;;74.20;38.72;;;8.70;99.90;;;;;;7269020;32;20124;-80
2021/12/16 05:28:29;;;;;;;87.78;39.63;;;8.80;99.90;;;;;;7256969;32;20155;-80
2021/12/16 05:32:31;;;;;;;80.30;39.10;;;8.80;99.90;;;;;;7245266;32;20194;-82
2021/12/16 05:36:33;;;;;;;83.55;39.90;;;8.80;99.90;;;;;;7242339;32;20112;-78
2021/12/16 05:40:35;;;;;;;77.95;37.30;;;8.80;99.90;;;;;;7234999;32;20143;-77
2021/12/16 05:44:37;;;;;;;82.43;39.78;;;8.70;99.90;;;;;;7246881;32;20097;-78
2021/12/16 05:48:42;;;;;;;80.97;40.45;;;8.70;99.90;;;;;;7274360;32;20099;-78
2021/12/16 05:52:44;;;;;;;83.50;39.75;;;8.60;99.90;;;;;;7240115;32;20626;-79
2021/12/16 05:56:46;;;;;;;83.85;40.97;;;8.60;99.90;;;;;;7259587;32;20207;-81
2021/12/16 06:00:51;;;;;;;80.78;40.20;;;8.60;99.90;;;;;;7266022;32;20605;-81
2021/12/16 06:04:53;;;;;;;83.25;39.85;;;8.50;99.90;;;;;;7242751;32;20151;-81
2021/12/16 06:08:57;;;;;;;75.60;38.88;;;8.70;99.90;;;;;;7272402;32;20108;-82
2021/12/16 06:13:00;;;;;;;72.10;38.97;;;8.60;99.90;;;;;;7251240;32;20179;-82
2021/12/16 06:30:11;;;;;;;72.60;38.50;;;8.80;99.90;;;;;;7247595;32;20112;-82
2021/12/16 06:34:12;;;;;;;81.18;40.75;;;8.70;99.90;;;;;;7248840;32;20279;-82
2021/12/16 06:38:14;;;;;;;75.43;40.95;;;8.70;99.90;;;;;;7260388;32;20764;-83
2021/12/16 06:42:34;;;;;;;74.95;39.53;;;8.70;99.90;;;;;;7238545;32;20567;-82
2021/12/16 06:46:38;;;;;;;79.62;40.83;;;8.70;99.90;;;;;;7250375;32;20121;-82
2021/12/16 06:51:21;;;;;;;77.40;40.25;;;8.60;99.90;;;;;;7254139;32;20188;-82
2021/12/16 06:59:24;;;;;;;79.05;40.05;;;8.60;99.90;;;;;;7249786;32;20158;-79
2021/12/16 07:03:33;;;;;;;78.72;39.90;;;8.70;99.90;;;;;;7256750;32;20136;-82
2021/12/16 07:07:36;;;;;;;79.03;40.95;;;8.70;99.90;;;;;;7235670;32;20513;-81
2021/12/16 07:11:41;;;;;;;77.68;39.70;;;8.80;99.90;;;;;;7248422;32;20208;-82
2021/12/16 07:15:45;;;;;;;79.62;40.05;;;8.70;99.90;;;;;;7244420;32;20435;-81
2021/12/16 07:19:46;;;;;;;73.85;40.55;;;8.70;99.90;;;;;;7260301;32;20546;-82
2021/12/16 07:23:49;;;;;;;77.53;40.25;;;8.70;99.90;;;;;;7250016;32;20194;-83
2021/12/16 07:27:51;;;;;;;81.90;41.05;;;8.60;99.90;;;;;;7272984;32;20109;-82
2021/12/16 07:31:54;;;;;;;81.50;40.80;;;8.70;99.90;;;;;;7250093;32;20144;-83
2021/12/16 07:35:56;;;;;;;83.68;40.78;;;8.60;99.90;;;;;;7253000;32;20136;-80
2021/12/16 07:40:05;;;;;;;75.70;38.47;;;8.70;99.90;;;;;;7255267;32;20585;-78
2021/12/16 07:44:12;;;;;;;81.93;40.88;;;8.60;99.90;;;;;;7234735;32;20166;-80
2021/12/16 07:48:16;;;;;;;81.60;40.15;;;8.60;99.90;;;;;;7247491;32;20158;-79
2021/12/16 07:52:20;;;;;;;71.60;37.33;;;8.60;99.90;;;;;;7238027;32;20390;-79
2021/12/16 07:56:22;;;;;;;74.82;39.38;;;8.60;99.90;;;;;;7255698;32;20112;-79
2021/12/16 08:00:28;;;;;;;93.65;43.22;;;8.70;99.90;;;;;;7261513;32;20121;-78
2021/12/16 08:04:31;;;;;;;87.10;41.75;;;8.70;99.90;;;;;;7256042;32;20143;-82
2021/12/16 08:08:33;;;;;;;89.80;40.67;;;8.70;99.90;;;;;;7272566;32;20061;-80
2021/12/16 08:12:35;;;;;;;92.35;41.45;;;8.60;99.90;;;;;;7294396;32;20122;-78
2021/12/16 08:16:38;;;;;;;100.68;42.75;;;8.80;99.90;;;;;;7279270;32;20108;-79
2021/12/16 08:20:40;;;;;;;105.18;45.75;;;8.70;99.90;;;;;;7281893;32;20255;-79
2021/12/16 08:24:42;;;;;;;108.60;47.13;;;8.80;99.90;;;;;;7268413;32;20154;-79
2021/12/16 08:28:44;;;;;;;108.25;47.47;;;8.80;99.90;;;;;;7293840;32;20096;-79
2021/12/16 08:32:46;;;;;;;129.10;52.85;;;8.90;99.90;;;;;;7274543;32;20081;-80
2021/12/16 08:36:48;;;;;;;131.50;51.55;;;8.90;99.90;;;;;;7282433;32;20245;-79
2021/12/16 08:40:53;;;;;;;109.10;46.92;;;8.90;99.90;;;;;;7268949;32;20151;-79
2021/12/16 08:44:55;;;;;;;101.80;43.45;;;8.80;99.90;;;;;;7268722;32;20683;-79
2021/12/16 08:48:58;;;;;;;90.20;42.05;;;8.70;99.90;;;;;;7280600;32;20565;-78
2021/12/16 08:53:01;;;;;;;97.90;43.00;;;8.70;99.90;;;;;;7272233;32;20146;-78
2021/12/16 08:57:04;;;;;;;96.22;43.90;;;8.60;99.90;;;;;;7277028;32;20162;-78
2021/12/16 09:01:17;;;;;;;92.05;40.25;;;8.50;99.90;;;;;;7269235;32;20113;-78
2021/12/16 09:05:20;;;;;;;82.53;37.72;;;8.50;99.90;;;;;;7270511;32;20116;-78
2021/12/16 09:09:21;;;;;;;75.78;35.25;;;8.60;99.90;;;;;;7256623;32;20208;-78
2021/12/16 09:13:24;;;;;;;81.10;38.33;;;8.50;99.90;;;;;;7273210;32;20065;-78
2021/12/16 09:17:26;;;;;;;101.65;41.92;;;8.40;99.90;;;;;;7256939;32;20158;-79
2021/12/16 09:21:32;;;;;;;111.25;45.03;;;8.40;99.90;;;;;;7255843;32;20757;-80
2021/12/16 09:25:35;;;;;;;110.05;45.58;;;8.40;99.90;;;;;;7254232;32;20116;-79
2021/12/16 09:29:38;;;;;;;115.65;46.30;;;8.40;99.90;;;;;;7250697;32;20140;-78
2021/12/16 09:33:43;;;;;;;116.70;47.25;;;8.40;99.90;;;;;;7270853;32;20131;-77
2021/12/16 09:37:46;;;;;;;116.18;47.55;;;8.40;99.90;;;;;;7256815;32;20264;-78
2021/12/16 09:41:51;;;;;;;112.62;46.65;;;8.50;99.90;;;;;;7252530;32;20140;-78
2021/12/16 09:45:54;;;;;;;103.38;43.25;;;8.50;99.90;;;;;;7255642;32;20147;-77
2021/12/16 09:49:57;;;;;;;112.75;44.45;;;8.50;99.90;;;;;;7261238;32;20124;-77
2021/12/16 09:54:07;;;;;;;115.05;47.05;;;8.50;99.90;;;;;;7243328;32;20263;-78
2021/12/16 09:58:09;;;;;;;117.25;47.03;;;8.50;99.90;;;;;;7254583;32;20215;-78
2021/12/16 10:02:19;;;;;;;122.10;48.60;;;8.50;99.90;;;;;;7244325;32;20134;-77
2021/12/16 10:06:21;;;;;;;118.60;46.97;;;8.50;99.90;;;;;;7268992;32;20163;-78
2021/12/16 10:10:25;;;;;;;123.70;46.22;;;8.40;99.90;;;;;;7249175;32;20125;-78
2021/12/16 10:18:29;;;;;;;136.45;51.00;;;8.40;99.90;;;;;;7253990;32;20237;-78
2021/12/16 10:22:39;;;;;;;136.00;50.60;;;8.50;99.90;;;;;;7251394;32;20128;-78
2021/12/16 10:26:41;;;;;;;151.57;53.10;;;8.50;99.90;;;;;;7269420;32;20504;-79
2021/12/16 10:31:16;;;;;;;138.98;51.22;;;8.40;99.90;;;;;;7253604;32;20439;-79
2021/12/16 10:35:25;;;;;;;144.15;52.40;;;8.50;99.90;;;;;;7261804;32;20124;-78
2021/12/16 10:39:27;;;;;;;137.85;50.55;;;8.60;99.90;;;;;;7256137;32;20506;-77
2021/12/16 10:43:35;;;;;;;132.85;49.28;;;8.60;99.90;;;;;;7262124;32;20262;-78
2021/12/16 10:47:37;;;;;;;107.82;43.45;;;8.60;99.90;;;;;;7264729;32;20124;-79
2021/12/16 10:51:43;;;;;;;111.30;43.90;;;8.60;99.90;;;;;;7261525;32;20905;-79
2021/12/16 10:55:59;;;;;;;104.38;41.53;;;8.60;99.90;;;;;;7259445;32;20213;-79
2021/12/16 11:00:13;;;;;;;112.95;43.30;;;8.60;99.90;;;;;;7268581;32;20112;-79
2021/12/16 11:04:38;;;;;;;107.30;44.67;;;8.60;99.90;;;;;;7266526;32;20207;-78
2021/12/16 11:08:40;;;;;;;97.25;41.45;;;8.70;99.90;;;;;;7250031;32;20148;-79
2021/12/16 11:12:51;;;;;;;92.85;40.28;;;8.60;99.90;;;;;;7251374;32;20265;-80
2021/12/16 11:17:02;;;;;;;93.95;41.15;;;8.70;99.90;;;;;;7278747;32;20120;-78
2021/12/16 11:21:07;;;;;;;100.10;41.42;;;8.70;99.90;;;;;;7263208;32;20174;-79
2021/12/16 11:25:15;;;;;;;86.32;39.00;;;8.70;99.90;;;;;;7268651;32;20108;-79
2021/12/16 11:29:17;;;;;;;88.15;39.28;;;8.70;99.90;;;;;;7273754;32;20231;-78
2021/12/16 11:33:27;;;;;;;93.05;40.92;;;8.70;99.90;;;;;;7258825;32;20702;-79
2021/12/16 11:37:29;;;;;;;89.05;38.33;;;8.70;99.90;;;;;;7260970;32;20230;-79
2021/12/16 11:41:35;;;;;;;84.85;37.83;;;8.80;99.90;;;;;;7239251;32;20116;-79
2021/12/16 11:45:39;;;;;;;90.87;38.03;;;8.80;99.90;;;;;;7242598;32;20116;-79
2021/12/16 11:50:01;;;;;;;86.32;38.25;;;8.70;99.90;;;;;;7246602;32;20547;-79
2021/12/16 11:54:13;;;;;;;95.28;40.00;;;8.70;99.90;;;;;;7260835;32;20609;-78
2021/12/16 11:58:15;;;;;;;81.05;38.05;;;8.50;99.90;;;;;;7259340;32;20170;-81
2021/12/16 12:02:21;;;;;;;82.90;37.20;;;8.70;99.90;;;;;;7252221;32;20187;-80
2021/12/16 12:06:28;;;;;;;83.27;38.40;;;8.70;99.90;;;;;;7243618;32;20130;-81
2021/12/16 12:10:53;;;;;;;71.78;35.95;;;8.70;99.90;;;;;;7240052;32;20810;-81
2021/12/16 12:15:04;;;;;;;73.45;37.72;;;8.80;99.90;;;;;;7257051;32;20884;-80
2021/12/16 12:19:24;;;;;;;83.57;39.08;;;8.80;99.90;;;;;;7271079;32;20134;-80
2021/12/16 12:23:26;;;;;;;67.82;32.90;;;8.80;99.90;;;;;;7258436;32;20138;-80
2021/12/16 12:27:28;;;;;;;83.07;41.33;;;8.90;99.90;;;;;;7252401;32;20108;-80
2021/12/16 12:31:33;;;;;;;74.93;36.05;;;9.00;99.90;;;;;;7260100;32;20235;-79
2021/12/16 12:35:35;;;;;;;76.15;35.05;;;9.00;99.90;;;;;;7246930;32;20143;-79
2021/12/16 12:39:48;;;;;;;61.65;31.33;;;9.00;99.90;;;;;;7257219;32;20149;-78
2021/12/16 12:43:51;;;;;;;66.03;31.92;;;9.00;99.90;;;;;;7254253;32;20109;-79
2021/12/16 12:47:57;;;;;;;65.55;31.67;;;9.10;99.90;;;;;;7270302;32;20109;-78
2021/12/16 12:52:11;;;;;;;60.03;31.58;;;9.10;99.90;;;;;;7243098;32;20124;-80
2021/12/16 12:56:22;;;;;;;58.97;31.33;;;9.10;99.90;;;;;;7239257;32;20120;-79
2021/12/16 13:00:35;;;;;;;63.22;34.28;;;9.10;99.90;;;;;;7258017;32;20121;-79
2021/12/16 13:04:47;;;;;;;55.03;29.00;;;9.20;99.90;;;;;;7239711;32;20159;-80
2021/12/16 13:08:50;;;;;;;64.87;32.70;;;9.30;99.90;;;;;;7256374;32;20128;-78
2021/12/16 13:30:31;;;;;;;62.97;30.60;;;9.40;99.90;;;;;;7263747;32;20116;-79
2021/12/16 13:34:51;;;;;;;65.15;33.80;;;9.40;99.90;;;;;;7242209;32;20199;-79
2021/12/16 13:38:55;;;;;;;68.80;34.05;;;9.40;99.90;;;;;;7253260;32;20660;-78
2021/12/16 13:43:11;;;;;;;113.20;57.62;;;9.30;99.90;;;;;;7247228;32;20180;-78
2021/12/16 14:05:05;;;;;;;76.53;36.33;;;9.00;99.90;;;;;;7259416;32;20290;-82
2021/12/16 14:09:18;;;;;;;77.70;35.25;;;9.10;99.90;;;;;;7236840;32;20100;-83
2021/12/16 14:18:04;;;;;;;80.90;36.65;;;9.10;99.90;;;;;;7246745;32;20235;-82
2021/12/16 14:27:20;;;;;;;73.85;34.45;;;9.10;99.90;;;;;;7264279;32;20101;-82
2021/12/16 14:32:17;;;;;;;75.75;35.33;;;9.00;99.90;;;;;;7248783;32;20139;-82
2021/12/16 14:40:51;;;;;;;71.57;32.85;;;9.10;99.90;;;;;;7271123;32;20123;-80
2021/12/16 14:49:32;;;;;;;72.85;32.22;;;9.10;99.90;;;;;;7260715;32;20227;-82
2021/12/16 14:53:45;;;;;;;69.37;29.98;;;9.00;99.90;;;;;;7243394;32;20182;-82
2021/12/16 14:57:53;;;;;;;74.95;34.05;;;9.10;99.90;;;;;;7231087;32;20121;-81
2021/12/16 15:02:00;;;;;;;71.87;34.70;;;9.20;99.90;;;;;;7232255;32;20129;-82
2021/12/16 15:06:07;;;;;;;64.18;30.80;;;9.20;99.90;;;;;;7261100;32;20106;-81
2021/12/16 15:10:14;;;;;;;72.68;32.70;;;9.20;99.90;;;;;;7267566;32;20229;-81
2021/12/16 15:14:32;;;;;;;67.40;33.10;;;9.20;99.90;;;;;;7247095;32;20671;-82
2021/12/16 15:37:03;;;;;;;88.37;35.38;;;9.00;99.90;;;;;;7258830;32;20689;-82
2021/12/16 15:45:22;;;;;;;76.70;35.88;;;8.90;99.90;;;;;;7246876;32;20210;-82
2021/12/16 15:49:24;;;;;;;87.75;38.20;;;8.80;99.90;;;;;;7260476;32;20117;-81
2021/12/16 15:53:36;;;;;;;86.60;37.45;;;8.90;99.90;;;;;;7264426;32;20129;-80
2021/12/16 15:57:38;;;;;;;84.78;36.35;;;8.90;99.90;;;;;;7263350;32;20592;-81
2021/12/16 16:01:53;;;;;;;87.40;37.17;;;8.80;99.90;;;;;;7253069;32;20293;-81
2021/12/16 16:05:59;;;;;;;83.35;35.88;;;8.70;99.90;;;;;;7258579;32;20147;-82
2021/12/16 16:10:00;;;;;;;81.00;34.35;;;8.70;99.90;;;;;;7242527;32;20215;-82
2021/12/16 16:14:05;;;;;;;78.00;34.47;;;8.80;99.90;;;;;;7252606;32;20109;-83
2021/12/16 16:18:33;;;;;;;85.65;35.08;;;8.80;99.90;;;;;;7246174;32;20207;-81
2021/12/16 16:22:46;;;;;;;84.68;36.47;;;8.80;99.90;;;;;;7250115;32;20566;-82
2021/12/16 16:26:51;;;;;;;88.28;37.92;;;8.80;99.90;;;;;;7242845;32;20756;-82
2021/12/16 16:30:54;;;;;;;76.32;34.70;;;8.80;99.90;;;;;;7248020;32;20152;-82
2021/12/16 16:34:58;;;;;;;71.50;33.45;;;8.80;99.90;;;;;;7258448;32;20193;-81
2021/12/16 16:39:07;;;;;;;73.32;34.08;;;8.80;99.90;;;;;;7265666;32;20260;-80
2021/12/16 16:43:38;;;;;;;77.20;34.38;;;8.90;99.90;;;;;;7251256;32;20117;-81
2021/12/16 16:47:51;;;;;;;72.28;35.05;;;8.70;99.90;;;;;;7273216;32;20206;-82
2021/12/16 16:51:59;;;;;;;80.30;34.80;;;8.70;99.90;;;;;;7251569;32;20173;-81
2021/12/16 16:56:02;;;;;;;85.35;35.45;;;8.60;99.90;;;;;;7271387;32;20210;-81
2021/12/16 17:00:16;;;;;;;87.25;36.67;;;8.60;99.90;;;;;;7253942;32;20126;-81
2021/12/16 17:04:18;;;;;;;97.47;38.65;;;8.60;99.90;;;;;;7255962;32;20112;-81
2021/12/16 17:08:40;;;;;;;87.22;36.47;;;8.60;99.90;;;;;;7256422;32;20593;-81
2021/12/16 17:12:42;;;;;;;86.75;36.17;;;8.60;99.90;;;;;;7262704;32;20707;-80
2021/12/16 17:21:12;;;;;;;;;;;8.60;99.90;;;;;;7275579;32;20155;-81
2021/12/16 17:25:15;;;;;;;83.82;36.28;;;8.50;99.90;;;;;;7250470;32;20024;-80
2021/12/16 17:29:23;;;;;;;86.00;36.88;;;8.50;99.90;;;;;;7265415;32;20557;-81
2021/12/16 17:33:33;;;;;;;85.20;36.92;;;8.50;99.90;;;;;;7260498;32;20195;-80
2021/12/16 17:37:46;;;;;;;86.37;35.85;;;8.50;99.90;;;;;;7276192;32;20562;-82
2021/12/16 17:42:06;;;;;;;91.72;36.95;;;8.40;99.90;;;;;;7259048;32;20152;-80
2021/12/16 17:51:24;;;;;;;91.50;36.10;;;8.40;99.90;;;;;;7255598;32;20215;-81
2021/12/16 17:55:35;;;;;;;84.37;36.70;;;8.40;99.90;;;;;;7243804;32;20522;-81
2021/12/16 17:59:39;;;;;;;88.32;37.00;;;8.40;99.90;;;;;;7257444;32;20154;-80
2021/12/16 18:04:00;;;;;;;92.28;36.13;;;8.40;99.90;;;;;;7254791;32;20258;-82
2021/12/16 18:08:02;;;;;;;98.05;38.28;;;8.50;99.90;;;;;;7270721;32;20096;-82
2021/12/16 18:12:13;;;;;;;95.45;38.50;;;8.50;99.90;;;;;;7259770;32;20162;-81
2021/12/16 18:16:24;;;;;;;101.32;39.40;;;8.40;99.90;;;;;;7262918;32;20113;-80
2021/12/16 18:20:39;;;;;;;89.70;36.03;;;8.40;99.90;;;;;;7271245;32;20610;-81
2021/12/16 18:24:55;;;;;;;87.07;36.88;;;8.50;99.90;;;;;;7264153;32;20221;-80
2021/12/16 18:28:57;;;;;;;99.75;37.30;;;8.40;99.90;;;;;;7264560;32;20113;-81
2021/12/16 18:33:09;;;;;;;93.22;38.53;;;8.40;99.90;;;;;;7270180;32;20158;-81
2021/12/16 18:37:15;;;;;;;91.75;36.25;;;8.40;99.90;;;;;;7251498;32;20253;-81
2021/12/16 18:41:28;;;;;;;88.10;35.60;;;8.40;99.90;;;;;;7255183;32;20239;-81
2021/12/16 18:45:31;;;;;;;90.90;38.72;;;8.40;99.90;;;;;;7261394;32;20274;-81
2021/12/16 18:49:40;;;;;;;87.78;35.90;;;8.40;99.90;;;;;;7276786;32;20121;-81
2021/12/16 18:58:10;;;;;;;86.45;35.33;;;8.40;99.90;;;;;;7267064;32;20135;-81
2021/12/16 19:02:33;;;;;;;91.00;36.65;;;8.40;99.90;;;;;;7282541;32;20105;-81
2021/12/16 19:06:38;;;;;;;85.93;34.92;;;8.40;99.90;;;;;;7278782;32;20775;-81
2021/12/16 19:10:40;;;;;;;90.07;33.85;;;8.40;99.90;;;;;;7275006;32;20235;-81
2021/12/16 19:14:50;;;;;;;90.18;36.15;;;8.40;99.90;;;;;;7271261;32;20199;-82
2021/12/16 19:18:53;;;;;;;95.20;36.95;;;8.40;99.90;;;;;;7262582;32;20249;-82
2021/12/16 19:23:17;;;;;;;94.22;36.95;;;8.40;99.90;;;;;;7280990;32;20100;-81
2021/12/16 19:27:21;;;;;;;86.60;37.83;;;8.40;99.90;;;;;;7280533;32;20108;-81
2021/12/16 19:31:24;;;;;;;91.95;39.42;;;8.40;99.90;;;;;;7261488;32;20456;-81
2021/12/16 19:35:27;;;;;;;91.40;37.17;;;8.40;99.90;;;;;;7258820;32;20709;-81
2021/12/16 19:39:29;;;;;;;95.30;36.47;;;8.40;99.90;;;;;;7264857;32;20112;-81
2021/12/16 19:43:32;;;;;;;91.05;36.65;;;8.40;99.90;;;;;;7267966;32;20198;-83
2021/12/16 19:47:35;;;;;;;88.28;34.70;;;8.40;99.90;;;;;;7261832;32;20232;-82
2021/12/16 19:51:38;;;;;;;87.80;32.63;;;8.30;99.90;;;;;;7277260;32;20126;-82
2021/12/16 19:55:40;;;;;;;80.70;32.17;;;8.30;99.90;;;;;;7266870;32;20132;-82
2021/12/16 19:59:42;;;;;;;85.35;33.13;;;8.40;99.90;;;;;;7267816;32;20269;-82
2021/12/16 20:04:12;;;;;;;83.00;35.20;;;8.40;99.90;;;;;;7277613;32;20847;-80
2021/12/16 20:08:18;;;;;;;75.47;31.73;;;8.40;99.90;;;;;;7268448;32;20108;-82
2021/12/16 20:12:29;;;;;;;83.80;32.20;;;8.40;99.90;;;;;;7277239;32;20204;-82
2021/12/16 20:16:54;;;;;;;84.80;34.15;;;8.40;99.90;;;;;;7251723;32;20124;-82
2021/12/16 20:21:04;;;;;;;84.10;34.28;;;8.40;99.90;;;;;;7269522;32;20169;-81
2021/12/16 20:25:13;;;;;;;85.20;32.67;;;8.40;99.90;;;;;;7272430;32;20128;-82
2021/12/16 20:29:19;;;;;;;84.70;34.03;;;8.40;99.90;;;;;;7258841;32;20332;-80
2021/12/16 20:33:25;;;;;;;87.25;33.88;;;8.40;99.90;;;;;;7278203;32;20161;-81
2021/12/16 20:37:28;;;;;;;92.55;35.15;;;8.40;99.90;;;;;;7279059;32;20547;-81
2021/12/16 20:41:36;;;;;;;76.25;30.48;;;8.30;99.90;;;;;;7253731;32;20116;-81
2021/12/16 20:46:00;;;;;;;82.82;32.58;;;8.40;99.90;;;;;;7259944;32;20734;-82
2021/12/16 20:50:04;;;;;;;78.07;31.15;;;8.40;99.90;;;;;;7267317;32;20229;-82
2021/12/16 20:54:10;;;;;;;79.65;28.73;;;8.30;99.90;;;;;;7267579;32;20117;-82
2021/12/16 20:58:17;;;;;;;76.30;29.37;;;8.30;99.90;;;;;;7244633;32;20187;-83
2021/12/16 21:02:25;;;;;;;76.15;29.52;;;8.30;99.90;;;;;;7265807;32;20549;-84
2021/12/16 21:06:27;;;;;;;82.10;32.35;;;8.30;99.90;;;;;;7263543;32;20200;-81
2021/12/16 21:10:29;;;;;;;83.18;29.75;;;8.20;99.90;;;;;;7266590;32;20108;-82
2021/12/16 21:14:31;;;;;;;86.25;32.03;;;8.30;99.90;;;;;;7252214;32;20057;-81
2021/12/16 21:18:33;;;;;;;84.93;33.03;;;8.30;99.90;;;;;;7280058;32;20234;-81
2021/12/16 21:22:35;;;;;;;94.10;34.42;;;8.30;99.90;;;;;;7267195;32;20134;-82
2021/12/16 21:26:39;;;;;;;88.32;33.67;;;8.30;99.90;;;;;;7280665;32;20146;-81
2021/12/16 21:30:42;;;;;;;87.37;35.70;;;8.30;99.90;;;;;;7261268;32;20101;-80
2021/12/16 21:34:54;;;;;;;87.65;33.47;;;8.30;99.90;;;;;;7259827;32;20112;-80
2021/12/16 21:38:57;;;;;;;79.75;33.20;;;8.30;99.90;;;;;;7249422;32;20207;-81
2021/12/16 21:43:00;;;;;;;79.47;32.65;;;8.50;99.90;;;;;;7268406;32;20124;-82
2021/12/16 21:47:05;;;;;;;93.87;36.25;;;8.40;99.90;;;;;;7259551;32;20166;-79
2021/12/16 21:51:08;;;;;;;96.28;35.35;;;8.30;99.90;;;;;;7261897;32;20135;-82
2021/12/16 21:55:12;;;;;;;86.85;35.45;;;8.30;99.90;;;;;;7270368;32;20166;-82
2021/12/16 21:59:14;;;;;;;81.53;35.35;;;8.30;99.90;;;;;;7264122;32;20116;-82
2021/12/16 22:03:22;;;;;;;80.03;33.92;;;8.40;99.90;;;;;;7266285;32;20131;-81
2021/12/16 22:07:24;;;;;;;79.57;32.35;;;8.40;99.90;;;;;;7255721;32;20204;-81
2021/12/16 22:11:27;;;;;;;84.05;31.33;;;8.30;99.90;;;;;;7247249;32;20183;-80
2021/12/16 22:15:30;;;;;;;72.85;29.33;;;8.30;99.90;;;;;;7265535;32;20104;-80
2021/12/16 22:19:33;;;;;;;86.40;33.25;;;8.30;99.90;;;;;;7282008;32;20199;-80
2021/12/16 22:23:36;;;;;;;70.30;29.42;;;8.30;99.90;;;;;;7264061;32;20112;-78
2021/12/16 22:27:38;;;;;;;71.18;27.77;;;8.30;99.90;;;;;;7263117;32;20534;-80
2021/12/16 22:31:43;;;;;;;76.40;29.08;;;8.30;99.90;;;;;;7270068;32;20117;-82
2021/12/16 22:35:50;;;;;;;79.85;31.12;;;8.30;99.90;;;;;;7263213;32;20147;-80
2021/12/16 22:39:52;;;;;;;;;;;8.30;99.90;;;;;;7282969;32;20108;-80
2021/12/16 22:43:53;;;;;;;76.85;30.33;;;8.30;99.90;;;;;;7276885;32;20020;-79
2021/12/16 22:47:55;;;;;;;81.80;32.30;;;8.30;99.90;;;;;;7289518;32;20073;-80
2021/12/16 22:51:57;;;;;;;87.97;33.00;;;8.40;99.90;;;;;;7303919;32;20092;-80
2021/12/16 22:56:00;;;;;;;79.93;31.58;;;8.40;99.90;;;;;;7290000;32;20172;-80
2021/12/16 23:00:08;;;;;;;83.47;33.17;;;8.40;99.90;;;;;;7291324;32;20114;-80
2021/12/16 23:04:12;;;;;;;82.35;29.73;;;8.40;99.90;;;;;;7304795;32;20058;-80
2021/12/16 23:08:17;;;;;;;79.12;30.73;;;8.30;99.90;;;;;;7267239;32;20489;-80
2021/12/16 23:12:20;;;;;;;74.60;29.15;;;8.40;99.90;;;;;;7243962;32;20108;-80
2021/12/16 23:25:06;;;;;;;79.82;30.02;;;8.40;99.90;;;;;;7252307;32;20210;-80
2021/12/16 23:29:09;;;;;;;81.07;29.85;;;8.40;99.90;;;;;;7241878;32;20164;-80
2021/12/16 23:33:11;;;;;;;78.47;30.20;;;8.30;99.90;;;;;;7259904;32;20138;-80
2021/12/16 23:37:13;;;;;;;75.90;29.05;;;8.40;99.90;;;;;;7274830;32;20598;-80
2021/12/16 23:45:51;;;;;;;77.78;30.05;;;8.40;99.90;;;;;;7267963;32;20121;-80
2021/12/16 23:54:15;;;;;;;76.87;29.45;;;8.40;99.90;;;;;;7264706;32;20207;-80
2021/12/16 23:58:18;;;;;;;66.10;28.02;;;8.40;99.90;;;;;;7261379;32;20144;-80
